Time;durP1;ratioP1;P1;durP2;ratioP2;P2;SDS_P1;SDS_P2;PMS_P1;PMS_P2;Temp;Humidity;BMP_temperature;BMP_pressure;BME280_temperature;BME280_humidity;BME280_pressure;Samples;Min_cycle;Max_cycle;Signal;HPM_P1;HPM_P2
2023/09/01 00:01:32;;;;;;;0.50;0.40;;;12.00;99.90;;;;;;5118336;27;20035;-76
2023/09/01 00:03:58;;;;;;;1.23;0.50;;;12.00;99.90;;;;;;5104856;28;20113;-76
2023/09/01 00:06:24;;;;;;;0.82;0.47;;;12.00;99.90;;;;;;5085921;28;20046;-76
2023/09/01 00:08:49;;;;;;;0.55;0.30;;;12.00;99.90;;;;;;5103217;28;20031;-76
2023/09/01 00:11:15;;;;;;;1.20;0.50;;;12.00;99.90;;;;;;5101909;28;20128;-77
2023/09/01 00:13:41;;;;;;;0.82;0.40;;;12.00;99.90;;;;;;5101909;28;20035;-76
2023/09/01 00:16:07;;;;;;;1.10;0.63;;;12.00;99.90;;;;;;5104538;28;20182;-76
2023/09/01 00:18:33;;;;;;;2.33;0.73;;;12.00;99.90;;;;;;5068918;28;20054;-76
2023/09/01 00:21:00;;;;;;;1.60;0.50;;;12.00;99.90;;;;;;5103574;28;20166;-76
2023/09/01 00:23:27;;;;;;;1.73;0.40;;;12.00;99.90;;;;;;5085179;28;20482;-76
2023/09/01 00:25:54;;;;;;;2.30;0.50;;;12.00;99.90;;;;;;5065037;28;20070;-76
2023/09/01 00:28:19;;;;;;;4.55;0.70;;;12.00;99.90;;;;;;5103449;28;20036;-76
2023/09/01 00:31:00;;;;;;;0.98;0.52;;;12.00;99.90;;;;;;5083633;28;20039;-76
2023/09/01 00:33:28;;;;;;;1.40;0.50;;;12.00;99.90;;;;;;5102620;28;20070;-76
2023/09/01 00:35:55;;;;;;;0.98;0.50;;;12.00;99.90;;;;;;5103626;28;20039;-76
2023/09/01 00:38:21;;;;;;;1.05;0.50;;;11.90;99.90;;;;;;5072852;28;20400;-76
2023/09/01 00:40:49;;;;;;;2.80;0.88;;;11.90;99.90;;;;;;5073508;28;20066;-76
2023/09/01 00:43:16;;;;;;;1.52;0.70;;;12.00;99.90;;;;;;5077193;28;20164;-76
2023/09/01 00:45:42;;;;;;;1.50;0.57;;;11.90;99.90;;;;;;5081637;28;20040;-76
2023/09/01 00:48:10;;;;;;;1.50;0.60;;;11.80;99.90;;;;;;5093155;28;20119;-76
2023/09/01 00:50:36;;;;;;;0.73;0.50;;;11.90;99.90;;;;;;5083944;28;20400;-76
2023/09/01 00:53:04;;;;;;;1.90;0.55;;;12.00;99.90;;;;;;5070270;28;20046;-76
2023/09/01 00:55:30;;;;;;;1.30;0.52;;;11.90;99.90;;;;;;5089613;28;20098;-76
2023/09/01 00:57:55;;;;;;;3.15;0.65;;;11.90;99.90;;;;;;5103179;28;20485;-76
2023/09/01 01:00:21;;;;;;;1.85;0.98;;;11.90;99.90;;;;;;5085950;28;20122;-76
2023/09/01 01:02:47;;;;;;;1.95;0.70;;;11.90;99.90;;;;;;5106040;28;20047;-76
2023/09/01 01:05:15;;;;;;;1.10;0.47;;;11.90;99.90;;;;;;5106818;28;20040;-76
2023/09/01 01:08:02;;;;;;;1.63;0.70;;;11.90;99.90;;;;;;5108252;28;20032;-76
2023/09/01 01:10:38;;;;;;;1.60;0.73;;;11.80;99.90;;;;;;5088516;28;20054;-76
2023/09/01 01:13:13;;;;;;;1.17;0.60;;;11.80;99.90;;;;;;5088848;28;20027;-76
2023/09/01 01:15:39;;;;;;;1.30;0.50;;;11.80;99.90;;;;;;5101567;28;20489;-76
2023/09/01 01:18:10;;;;;;;1.13;0.47;;;11.70;99.90;;;;;;5087619;28;20115;-76
2023/09/01 01:20:38;;;;;;;2.05;0.60;;;11.80;99.90;;;;;;5087885;28;20063;-76
2023/09/01 01:23:16;;;;;;;3.72;0.68;;;11.70;99.90;;;;;;5088324;28;20066;-76
2023/09/01 01:25:52;;;;;;;2.63;0.80;;;11.70;99.90;;;;;;5102704;27;20137;-76
2023/09/01 01:28:19;;;;;;;1.38;0.52;;;11.70;99.90;;;;;;5105672;28;20106;-76
2023/09/01 01:30:47;;;;;;;1.88;0.80;;;11.70;99.90;;;;;;5107047;28;20047;-77
2023/09/01 01:33:41;;;;;;;3.13;1.27;;;11.70;99.90;;;;;;5088684;28;20035;-76
2023/09/01 01:36:26;;;;;;;4.60;0.80;;;11.70;99.90;;;;;;5088115;28;20092;-76
2023/09/01 01:39:01;;;;;;;2.28;0.65;;;11.70;99.90;;;;;;5090951;28;20151;-76
2023/09/01 01:41:39;;;;;;;2.05;0.60;;;11.70;99.90;;;;;;5108023;27;20044;-76
2023/09/01 01:44:06;;;;;;;2.42;0.70;;;11.70;99.90;;;;;;5106171;27;20114;-77
2023/09/01 01:46:33;;;;;;;3.13;0.60;;;11.70;99.90;;;;;;5111274;28;20075;-76
2023/09/01 01:48:58;;;;;;;1.23;0.70;;;11.70;99.90;;;;;;5076526;28;20508;-76
2023/09/01 01:51:24;;;;;;;2.40;0.60;;;11.70;99.90;;;;;;5085801;28;20036;-76
2023/09/01 01:53:50;;;;;;;3.03;0.88;;;11.70;99.90;;;;;;5086053;28;20584;-76
2023/09/01 01:56:15;;;;;;;0.95;0.50;;;11.70;99.90;;;;;;5086875;28;20036;-77
2023/09/01 01:58:41;;;;;;;3.05;0.50;;;11.70;99.90;;;;;;5102846;27;20428;-77
2023/09/01 02:01:07;;;;;;;1.35;0.70;;;11.70;99.90;;;;;;5106498;28;20397;-77
2023/09/01 02:03:34;;;;;;;1.52;0.60;;;11.70;99.90;;;;;;5103890;28;20409;-76
2023/09/01 02:05:59;;;;;;;2.90;1.05;;;11.70;99.90;;;;;;5085083;28;20047;-76
2023/09/01 02:08:25;;;;;;;2.67;0.70;;;11.70;99.90;;;;;;5084840;28;20035;-76
2023/09/01 02:10:50;;;;;;;3.17;0.95;;;11.70;99.90;;;;;;5104839;28;20032;-76
2023/09/01 02:13:16;;;;;;;2.20;0.63;;;11.70;99.90;;;;;;5072106;28;20035;-76
2023/09/01 02:15:50;;;;;;;1.20;0.52;;;11.70;99.90;;;;;;5089183;28;20077;-76
2023/09/01 02:18:17;;;;;;;1.58;0.60;;;11.80;99.90;;;;;;5101828;28;20043;-76
2023/09/01 02:20:42;;;;;;;1.85;0.82;;;11.80;99.90;;;;;;5082608;28;20055;-76
2023/09/01 02:23:08;;;;;;;2.90;0.90;;;11.80;99.90;;;;;;5087368;28;20052;-76
2023/09/01 02:25:37;;;;;;;3.25;0.98;;;11.80;99.90;;;;;;5070621;28;20040;-76
2023/09/01 02:28:04;;;;;;;1.52;0.90;;;11.80;99.90;;;;;;5104457;28;20408;-76
2023/09/01 02:30:30;;;;;;;1.35;0.73;;;11.80;99.90;;;;;;5085869;28;20036;-77
2023/09/01 02:32:56;;;;;;;1.80;0.80;;;11.90;99.90;;;;;;5106591;28;20035;-77
2023/09/01 02:35:21;;;;;;;2.72;0.98;;;11.80;99.90;;;;;;5100341;28;20499;-76
2023/09/01 02:37:49;;;;;;;3.38;1.00;;;11.80;99.90;;;;;;5087034;27;20054;-76
2023/09/01 02:40:15;;;;;;;2.08;1.20;;;11.80;99.90;;;;;;5071832;28;20374;-76
2023/09/01 02:42:41;;;;;;;3.85;1.20;;;11.80;99.90;;;;;;5084644;28;20126;-76
2023/09/01 02:45:09;;;;;;;2.90;1.38;;;11.80;99.90;;;;;;5102936;28;20031;-76
2023/09/01 02:47:35;;;;;;;2.80;0.90;;;11.80;99.90;;;;;;5069307;28;20490;-76
2023/09/01 02:50:03;;;;;;;3.05;1.10;;;11.90;99.90;;;;;;5068662;28;20040;-76
2023/09/01 02:52:28;;;;;;;3.45;1.10;;;11.80;99.90;;;;;;5084389;28;20038;-77
2023/09/01 02:54:55;;;;;;;2.65;1.48;;;11.90;99.90;;;;;;5086862;28;20035;-76
2023/09/01 02:57:21;;;;;;;1.95;1.05;;;11.90;99.90;;;;;;5070933;28;20047;-76
2023/09/01 02:59:47;;;;;;;1.48;0.85;;;11.90;99.90;;;;;;5086956;28;21664;-76
2023/09/01 03:02:12;;;;;;;2.15;1.00;;;11.90;99.90;;;;;;5069110;28;20058;-76
2023/09/01 03:04:38;;;;;;;2.08;0.88;;;11.90;99.90;;;;;;5087529;28;20039;-76
2023/09/01 03:07:03;;;;;;;2.35;0.70;;;11.90;99.90;;;;;;5102192;28;20398;-76
2023/09/01 03:09:29;;;;;;;1.77;0.90;;;11.90;99.90;;;;;;5086240;28;20039;-76
2023/09/01 03:11:54;;;;;;;3.45;0.98;;;11.80;99.90;;;;;;5103366;28;20681;-76
2023/09/01 03:14:20;;;;;;;3.38;1.25;;;11.80;99.90;;;;;;5086590;28;20110;-76
2023/09/01 03:16:46;;;;;;;2.28;1.00;;;11.80;99.90;;;;;;5087143;28;20028;-76
2023/09/01 03:19:11;;;;;;;2.13;1.20;;;11.80;99.90;;;;;;5104755;28;20038;-76
2023/09/01 03:21:37;;;;;;;1.50;0.65;;;11.80;99.90;;;;;;5086097;28;20564;-76
2023/09/01 03:24:03;;;;;;;4.88;0.90;;;11.80;99.90;;;;;;5086438;28;20043;-76
2023/09/01 03:26:29;;;;;;;2.20;1.05;;;11.80;99.90;;;;;;5086185;28;20084;-76
2023/09/01 03:28:55;;;;;;;1.63;0.80;;;11.80;99.90;;;;;;5069284;28;20039;-76
2023/09/01 03:31:21;;;;;;;1.60;0.75;;;11.70;99.90;;;;;;5084269;28;20032;-76
2023/09/01 03:33:47;;;;;;;1.90;0.90;;;11.70;99.90;;;;;;5100579;28;20352;-76
2023/09/01 03:36:13;;;;;;;4.35;1.20;;;11.80;99.90;;;;;;5104498;28;20032;-76
2023/09/01 03:38:39;;;;;;;6.47;0.93;;;11.70;99.90;;;;;;5084264;28;20047;-76
2023/09/01 03:41:05;;;;;;;1.75;0.90;;;11.70;99.90;;;;;;5086945;28;20396;-76
2023/09/01 03:43:34;;;;;;;1.60;0.93;;;11.70;99.90;;;;;;5118652;27;20043;-77
2023/09/01 03:46:01;;;;;;;1.95;0.80;;;11.70;99.90;;;;;;5069669;28;20088;-76
2023/09/01 03:48:27;;;;;;;2.33;0.80;;;11.60;99.90;;;;;;5082597;28;20035;-76
2023/09/01 03:51:06;;;;;;;5.32;0.77;;;11.70;99.90;;;;;;5101073;28;20582;-77
2023/09/01 03:53:31;;;;;;;1.05;0.68;;;11.70;99.90;;;;;;5104905;28;20035;-77
2023/09/01 03:55:59;;;;;;;2.95;1.00;;;11.60;99.90;;;;;;5085974;28;20035;-76
2023/09/01 03:58:24;;;;;;;2.08;0.70;;;11.60;99.90;;;;;;5065923;28;20035;-76
2023/09/01 04:00:51;;;;;;;2.38;0.63;;;11.60;99.90;;;;;;5085016;28;20126;-76
2023/09/01 04:03:17;;;;;;;1.75;0.85;;;11.60;99.90;;;;;;5102529;28;20044;-77
2023/09/01 04:05:42;;;;;;;2.45;0.65;;;11.60;99.90;;;;;;5084743;28;20046;-77
2023/09/01 04:08:08;;;;;;;2.38;0.88;;;11.60;99.90;;;;;;5103057;28;20034;-77
2023/09/01 04:10:34;;;;;;;3.50;0.75;;;11.60;99.90;;;;;;5082464;28;20031;-77
2023/09/01 04:12:59;;;;;;;1.92;0.77;;;11.50;99.90;;;;;;5083716;28;20413;-77
2023/09/01 04:15:25;;;;;;;2.60;0.90;;;11.50;99.90;;;;;;5103827;28;20031;-76
2023/09/01 04:17:50;;;;;;;1.65;0.80;;;11.50;99.90;;;;;;5109018;27;20396;-76
2023/09/01 04:20:16;;;;;;;1.42;0.82;;;11.50;99.90;;;;;;5087213;28;20051;-76
2023/09/01 04:22:41;;;;;;;3.67;1.10;;;11.50;99.90;;;;;;5091019;28;20078;-78
2023/09/01 04:25:07;;;;;;;2.05;0.90;;;11.50;99.90;;;;;;5090985;28;20043;-77
2023/09/01 04:27:33;;;;;;;2.60;0.82;;;11.50;99.90;;;;;;5088078;28;20039;-77
2023/09/01 04:29:59;;;;;;;2.30;0.60;;;11.50;99.90;;;;;;5087981;28;20412;-77
2023/09/01 04:32:25;;;;;;;1.85;0.90;;;11.50;99.90;;;;;;5090207;28;20404;-77
2023/09/01 04:34:50;;;;;;;2.65;0.80;;;11.50;99.90;;;;;;5090321;28;20131;-77
2023/09/01 04:37:16;;;;;;;1.58;0.82;;;11.50;99.90;;;;;;5088586;28;20054;-77
2023/09/01 04:39:42;;;;;;;2.70;0.93;;;11.50;99.90;;;;;;5086374;28;20050;-77
2023/09/01 04:42:07;;;;;;;5.18;0.80;;;11.50;99.90;;;;;;5086590;28;20044;-77
2023/09/01 04:44:33;;;;;;;2.30;0.70;;;11.50;99.90;;;;;;5086612;28;20048;-77
2023/09/01 04:46:58;;;;;;;1.92;0.80;;;11.50;99.90;;;;;;5072750;28;20156;-77
2023/09/01 04:49:24;;;;;;;2.22;0.95;;;11.50;99.90;;;;;;5085659;28;20409;-77
2023/09/01 04:51:50;;;;;;;2.83;0.98;;;11.50;99.90;;;;;;5088579;28;20440;-77
2023/09/01 04:54:15;;;;;;;1.48;0.80;;;11.50;99.90;;;;;;5106848;28;20035;-77
2023/09/01 04:56:42;;;;;;;2.20;0.70;;;11.50;99.90;;;;;;5089604;28;20039;-77
2023/09/01 04:59:07;;;;;;;2.55;0.93;;;11.50;99.90;;;;;;5086526;28;20128;-77
2023/09/01 05:01:33;;;;;;;2.38;1.20;;;11.50;99.90;;;;;;5102502;27;20139;-77
2023/09/01 05:03:59;;;;;;;3.30;1.40;;;11.50;99.90;;;;;;5089813;28;20039;-77
2023/09/01 05:06:25;;;;;;;4.07;1.63;;;11.50;99.90;;;;;;5102696;28;20047;-77
2023/09/01 05:08:50;;;;;;;3.95;1.52;;;11.50;99.90;;;;;;5088406;28;20036;-78
2023/09/01 05:11:16;;;;;;;2.90;1.65;;;11.50;99.90;;;;;;5071924;28;20084;-77
2023/09/01 05:13:41;;;;;;;3.70;1.77;;;11.50;99.90;;;;;;5069475;28;20137;-77
2023/09/01 05:16:07;;;;;;;2.70;1.48;;;11.50;99.90;;;;;;5091226;28;20042;-77
2023/09/01 05:18:32;;;;;;;4.45;2.10;;;11.50;99.90;;;;;;5087973;28;20545;-77
2023/09/01 05:20:58;;;;;;;3.35;1.50;;;11.50;99.90;;;;;;5071515;28;20043;-77
2023/09/01 05:23:25;;;;;;;2.58;1.30;;;11.60;99.90;;;;;;5105529;28;20058;-77
2023/09/01 05:25:54;;;;;;;4.28;1.60;;;11.60;99.90;;;;;;5067709;28;20036;-77
2023/09/01 05:28:19;;;;;;;4.57;1.70;;;11.60;99.90;;;;;;5104706;27;21881;-77
2023/09/01 05:30:47;;;;;;;3.15;1.50;;;11.60;99.90;;;;;;5110402;28;20043;-77
2023/09/01 05:33:12;;;;;;;2.08;1.17;;;11.60;99.90;;;;;;5091050;28;20480;-77
2023/09/01 05:35:38;;;;;;;3.60;1.42;;;11.60;99.90;;;;;;5107767;28;20092;-77
2023/09/01 05:38:03;;;;;;;2.17;1.30;;;11.60;99.90;;;;;;5106861;28;20118;-77
2023/09/01 05:40:29;;;;;;;3.63;1.60;;;11.60;99.90;;;;;;5111531;28;20089;-77
2023/09/01 05:42:54;;;;;;;2.78;1.42;;;11.60;99.90;;;;;;5115135;27;20039;-77
2023/09/01 05:45:20;;;;;;;3.33;1.33;;;11.70;99.90;;;;;;5076493;28;20118;-77
2023/09/01 05:47:45;;;;;;;3.67;1.38;;;11.70;99.90;;;;;;5108777;28;20028;-77
2023/09/01 05:50:11;;;;;;;2.50;1.13;;;11.70;99.90;;;;;;5109040;27;20047;-77
2023/09/01 05:52:37;;;;;;;3.10;1.70;;;11.70;99.90;;;;;;5102156;27;20034;-77
2023/09/01 05:55:02;;;;;;;3.13;1.45;;;11.80;99.90;;;;;;5106922;28;20043;-77
2023/09/01 05:57:28;;;;;;;3.08;1.30;;;11.80;99.90;;;;;;5088182;28;20046;-78
2023/09/01 05:59:54;;;;;;;3.75;1.88;;;11.90;99.90;;;;;;5088980;28;20054;-77
2023/09/01 06:02:19;;;;;;;4.32;1.45;;;11.90;99.90;;;;;;5071008;28;20417;-78
2023/09/01 06:04:45;;;;;;;4.97;1.80;;;12.00;99.90;;;;;;5087357;28;20040;-77
2023/09/01 06:07:10;;;;;;;3.55;1.42;;;12.00;99.90;;;;;;5071723;27;20047;-77
2023/09/01 06:09:36;;;;;;;3.65;1.45;;;12.00;99.90;;;;;;5105978;28;20030;-77
2023/09/01 06:12:02;;;;;;;4.00;1.85;;;12.00;99.90;;;;;;5086041;28;20625;-77
2023/09/01 06:14:28;;;;;;;3.10;1.48;;;12.10;99.90;;;;;;5126971;27;20447;-77
2023/09/01 06:16:53;;;;;;;3.72;1.73;;;12.10;99.90;;;;;;5107846;28;20039;-77
2023/09/01 06:19:19;;;;;;;4.82;1.60;;;12.10;99.90;;;;;;5092796;28;20481;-77
2023/09/01 06:21:44;;;;;;;3.47;1.80;;;12.20;99.90;;;;;;5103625;28;21353;-77
2023/09/01 06:24:10;;;;;;;3.00;1.33;;;12.20;99.90;;;;;;5071582;28;20114;-77
2023/09/01 06:26:36;;;;;;;3.78;1.98;;;12.10;99.90;;;;;;5085884;28;20044;-77
2023/09/01 06:29:03;;;;;;;3.38;1.50;;;12.20;99.90;;;;;;5086535;28;20040;-77
2023/09/01 06:31:28;;;;;;;3.90;1.50;;;12.20;99.90;;;;;;5067394;28;20024;-78
2023/09/01 06:33:54;;;;;;;2.53;1.13;;;12.20;99.90;;;;;;5084846;28;20570;-78
2023/09/01 06:36:19;;;;;;;3.00;1.40;;;12.20;99.90;;;;;;5105703;28;20683;-78
2023/09/01 06:38:45;;;;;;;2.33;0.95;;;12.30;99.90;;;;;;5084610;28;20035;-78
2023/09/01 06:41:11;;;;;;;3.28;1.40;;;12.30;99.90;;;;;;5085269;28;20119;-78
2023/09/01 06:43:36;;;;;;;3.03;1.35;;;12.40;99.90;;;;;;5081020;28;20218;-77
2023/09/01 06:46:02;;;;;;;2.50;1.33;;;12.40;99.90;;;;;;5076027;28;22023;-78
2023/09/01 06:48:30;;;;;;;2.72;1.02;;;12.50;99.90;;;;;;5079145;28;20101;-77
2023/09/01 06:50:56;;;;;;;4.60;1.90;;;12.40;99.90;;;;;;5081624;28;20193;-78
2023/09/01 06:53:22;;;;;;;3.53;1.60;;;12.50;99.90;;;;;;5103693;28;20608;-78
2023/09/01 06:55:47;;;;;;;8.65;1.95;;;12.50;99.90;;;;;;5089002;28;20039;-78
2023/09/01 06:58:14;;;;;;;4.07;1.77;;;12.50;99.90;;;;;;5101954;28;20115;-77
2023/09/01 07:00:39;;;;;;;3.88;1.85;;;12.60;99.90;;;;;;5100250;28;20165;-77
2023/09/01 07:03:05;;;;;;;5.43;2.08;;;12.60;99.90;;;;;;5086506;28;20162;-78
2023/09/01 07:05:30;;;;;;;3.75;2.08;;;12.70;99.90;;;;;;5084402;28;20119;-78
2023/09/01 07:07:56;;;;;;;5.03;1.90;;;12.70;99.90;;;;;;5085981;28;20122;-77
2023/09/01 07:10:22;;;;;;;5.18;1.80;;;12.80;99.90;;;;;;5100169;28;20150;-78
2023/09/01 07:12:47;;;;;;;5.03;2.05;;;12.80;99.90;;;;;;5103141;28;20067;-77
2023/09/01 07:15:13;;;;;;;4.60;1.95;;;12.80;99.90;;;;;;5080091;27;20044;-78
2023/09/01 07:17:38;;;;;;;7.40;2.83;;;12.90;99.90;;;;;;5101351;28;20036;-78
2023/09/01 07:20:05;;;;;;;7.43;2.83;;;13.00;99.90;;;;;;5082138;28;20108;-79
2023/09/01 07:22:30;;;;;;;4.90;2.35;;;13.00;99.90;;;;;;5101500;28;20389;-78
2023/09/01 07:24:56;;;;;;;5.20;2.47;;;13.10;99.90;;;;;;5070232;28;20055;-77
2023/09/01 07:27:22;;;;;;;5.93;2.83;;;13.20;99.90;;;;;;5068631;28;20653;-77
2023/09/01 07:29:48;;;;;;;5.68;2.92;;;13.20;99.90;;;;;;5102406;28;20043;-76
2023/09/01 07:32:17;;;;;;;4.63;2.30;;;13.30;99.90;;;;;;5086240;28;20043;-78
2023/09/01 07:34:45;;;;;;;6.78;2.60;;;13.40;99.90;;;;;;5082040;28;20051;-78
2023/09/01 07:37:11;;;;;;;7.03;3.33;;;13.50;99.90;;;;;;5082390;28;20515;-78
2023/09/01 07:39:36;;;;;;;6.97;3.03;;;13.50;99.90;;;;;;5101032;28;20031;-78
2023/09/01 07:42:04;;;;;;;8.07;3.28;;;13.50;99.90;;;;;;5100932;28;20039;-78
2023/09/01 07:44:30;;;;;;;9.07;3.97;;;13.60;99.90;;;;;;5126975;27;20034;-78
2023/09/01 07:46:55;;;;;;;10.40;3.70;;;13.70;99.90;;;;;;5067626;27;20043;-78
2023/09/01 07:49:21;;;;;;;8.80;3.88;;;13.70;99.90;;;;;;5103964;28;20036;-79
2023/09/01 07:51:47;;;;;;;11.25;4.50;;;13.70;99.90;;;;;;5065919;28;21851;-78
2023/09/01 07:54:13;;;;;;;9.75;4.40;;;13.80;99.90;;;;;;5083484;28;20039;-78
2023/09/01 07:56:39;;;;;;;11.65;4.22;;;13.80;99.90;;;;;;5104932;28;20040;-78
2023/09/01 07:59:04;;;;;;;12.35;4.13;;;13.80;99.90;;;;;;5085420;28;20081;-78
2023/09/01 08:01:30;;;;;;;7.35;3.78;;;13.90;99.90;;;;;;5101802;28;20043;-79
2023/09/01 08:03:59;;;;;;;11.40;4.70;;;13.90;99.90;;;;;;5104224;28;20044;-78
2023/09/01 08:06:26;;;;;;;9.48;4.25;;;14.00;99.90;;;;;;5092618;28;20043;-79
2023/09/01 08:08:52;;;;;;;8.98;4.05;;;14.00;99.90;;;;;;5066757;28;20494;-77
2023/09/01 08:11:17;;;;;;;7.60;3.03;;;14.00;99.90;;;;;;5072871;28;20036;-78
2023/09/01 08:13:43;;;;;;;7.75;3.40;;;14.10;99.90;;;;;;5100924;28;20107;-78
2023/09/01 08:16:08;;;;;;;10.43;3.88;;;14.10;99.90;;;;;;5081139;28;20036;-77
2023/09/01 08:18:34;;;;;;;8.85;3.65;;;14.10;99.90;;;;;;5065958;28;20113;-78
2023/09/01 08:21:04;;;;;;;7.78;3.33;;;14.10;99.90;;;;;;5067826;28;20055;-77
2023/09/01 08:23:29;;;;;;;8.02;3.40;;;14.20;99.90;;;;;;5084127;28;20039;-77
2023/09/01 08:25:55;;;;;;;6.43;3.30;;;14.20;99.90;;;;;;5084272;28;20044;-77
2023/09/01 08:28:21;;;;;;;9.65;4.10;;;14.30;99.90;;;;;;5096615;28;20055;-78
2023/09/01 08:30:46;;;;;;;8.55;3.42;;;14.30;99.90;;;;;;5082407;28;20027;-78
2023/09/01 08:33:13;;;;;;;7.60;2.90;;;14.30;99.90;;;;;;5098937;28;20035;-79
2023/09/01 08:35:39;;;;;;;5.55;2.50;;;14.40;99.90;;;;;;5081398;28;20040;-78
2023/09/01 08:38:05;;;;;;;4.80;2.47;;;14.40;99.90;;;;;;5082709;28;20385;-79
2023/09/01 08:40:30;;;;;;;5.40;2.25;;;14.40;99.90;;;;;;5101245;28;20043;-78
2023/09/01 08:42:58;;;;;;;9.73;2.53;;;14.50;99.90;;;;;;5061503;28;20094;-78
2023/09/01 08:45:26;;;;;;;6.22;1.98;;;14.50;99.90;;;;;;5078970;28;20058;-84
2023/09/01 08:47:52;;;;;;;4.15;1.90;;;14.50;99.90;;;;;;5077823;28;20427;-78
2023/09/01 08:50:20;;;;;;;3.92;1.67;;;14.60;99.90;;;;;;5063088;28;20055;-78
2023/09/01 08:52:47;;;;;;;5.18;1.77;;;14.60;99.90;;;;;;5097832;28;20028;-78
2023/09/01 08:55:13;;;;;;;4.78;1.60;;;14.70;99.90;;;;;;5066335;28;20100;-78
2023/09/01 08:57:39;;;;;;;3.28;1.27;;;14.70;99.90;;;;;;5083600;28;20131;-78
2023/09/01 09:00:08;;;;;;;4.40;1.52;;;14.70;99.90;;;;;;5102715;28;20126;-78
2023/09/01 09:02:34;;;;;;;4.03;1.15;;;14.70;99.90;;;;;;5080849;28;20043;-78
2023/09/01 09:05:02;;;;;;;3.42;1.30;;;14.70;99.90;;;;;;5079427;28;20040;-78
2023/09/01 09:07:29;;;;;;;3.22;1.35;;;14.80;99.90;;;;;;5074495;28;20525;-78
2023/09/01 09:09:59;;;;;;;6.43;1.30;;;14.80;99.90;;;;;;5072531;28;20035;-78
2023/09/01 09:12:34;;;;;;;7.63;1.65;;;14.90;99.90;;;;;;5069130;28;20454;-78
2023/09/01 09:15:00;;;;;;;8.50;1.38;;;14.90;99.90;;;;;;5086908;28;20453;-78
2023/09/01 09:17:46;;;;;;;4.32;1.33;;;15.00;99.90;;;;;;5079693;28;20044;-78
2023/09/01 09:20:17;;;;;;;3.30;1.40;;;15.00;99.90;;;;;;5081830;28;20098;-78
2023/09/01 09:22:59;;;;;;;2.30;1.30;;;15.00;99.90;;;;;;5088404;28;20035;-78
2023/09/01 09:25:33;;;;;;;3.85;1.50;;;15.00;99.90;;;;;;5085200;28;20040;-78
2023/09/01 09:28:15;;;;;;;5.38;1.65;;;15.00;99.90;;;;;;5104045;28;20077;-78
2023/09/01 09:30:51;;;;;;;5.13;1.67;;;15.00;99.90;;;;;;5069251;28;20054;-77
2023/09/01 09:33:26;;;;;;;3.63;1.40;;;15.20;99.90;;;;;;5080860;28;20523;-78
2023/09/01 09:35:52;;;;;;;4.68;2.15;;;15.20;99.90;;;;;;5068123;28;20086;-78
2023/09/01 09:38:17;;;;;;;5.15;1.75;;;15.30;99.90;;;;;;5070521;28;20047;-80
2023/09/01 09:40:59;;;;;;;4.53;2.13;;;15.30;99.90;;;;;;5107687;28;20043;-78
2023/09/01 09:43:25;;;;;;;4.28;2.28;;;15.30;99.90;;;;;;5099708;28;20040;-78
2023/09/01 09:45:54;;;;;;;7.85;2.10;;;15.40;99.90;;;;;;5078995;27;20054;-80
2023/09/01 09:48:21;;;;;;;5.93;2.58;;;15.40;99.90;;;;;;5098901;27;20040;-81
2023/09/01 09:50:50;;;;;;;4.03;2.20;;;15.50;99.90;;;;;;5094234;28;20124;-81
2023/09/01 09:53:24;;;;;;;6.60;2.53;;;15.50;99.90;;;;;;5084646;28;20046;-81
2023/09/01 09:55:51;;;;;;;7.35;3.00;;;15.50;99.90;;;;;;5079822;27;20036;-81
2023/09/01 09:58:34;;;;;;;9.68;3.58;;;15.60;99.90;;;;;;5073241;28;20044;-79
2023/09/01 10:01:09;;;;;;;10.30;3.60;;;15.60;99.90;;;;;;5112257;27;20603;-79
2023/09/01 10:03:36;;;;;;;6.55;3.08;;;15.60;99.90;;;;;;5055479;28;20158;-78
2023/09/01 10:06:04;;;;;;;8.13;3.25;;;15.70;99.90;;;;;;5079405;28;20047;-79
2023/09/01 10:08:32;;;;;;;9.98;3.53;;;15.70;99.90;;;;;;5081961;28;20036;-76
2023/09/01 10:11:01;;;;;;;9.88;3.17;;;15.70;99.90;;;;;;5065892;28;20023;-78
2023/09/01 10:13:27;;;;;;;8.43;3.75;;;15.80;99.90;;;;;;5098191;28;20042;-78
2023/09/01 10:15:55;;;;;;;11.27;4.80;;;15.80;99.90;;;;;;5080822;27;20035;-78
2023/09/01 10:18:21;;;;;;;9.25;4.07;;;15.80;99.90;;;;;;5073177;28;20040;-78
2023/09/01 10:20:47;;;;;;;8.20;4.05;;;15.80;99.90;;;;;;5075632;28;20095;-78
2023/09/01 10:23:13;;;;;;;11.20;4.40;;;15.90;99.90;;;;;;5082900;28;20424;-78
2023/09/01 10:25:39;;;;;;;9.57;4.10;;;15.90;99.90;;;;;;5082159;28;20050;-78
2023/09/01 10:28:13;;;;;;;10.95;4.25;;;15.90;99.90;;;;;;5101452;28;20032;-78
2023/09/01 10:30:45;;;;;;;13.25;4.68;;;15.90;99.90;;;;;;5064061;28;20031;-78
2023/09/01 10:33:26;;;;;;;9.38;4.50;;;15.90;99.90;;;;;;5080289;28;20031;-78
2023/09/01 10:35:55;;;;;;;8.45;4.05;;;15.90;99.90;;;;;;5094913;28;20398;-78
2023/09/01 10:38:35;;;;;;;9.38;3.78;;;15.90;99.90;;;;;;5099394;28;20032;-78
2023/09/01 10:41:02;;;;;;;12.18;4.57;;;16.00;99.90;;;;;;5084369;28;20035;-78
2023/09/01 10:43:34;;;;;;;9.82;4.03;;;16.00;99.90;;;;;;5100400;27;20269;-78
2023/09/01 10:46:22;;;;;;;11.20;4.85;;;16.00;99.90;;;;;;5102088;28;20169;-78
2023/09/01 10:48:50;;;;;;;11.45;4.63;;;16.00;99.90;;;;;;5097901;28;20555;-77
2023/09/01 10:51:21;;;;;;;9.98;4.57;;;16.10;99.90;;;;;;5080873;28;20043;-78
2023/09/01 10:53:50;;;;;;;13.30;5.05;;;16.10;99.90;;;;;;5081723;28;20032;-78
2023/09/01 10:56:16;;;;;;;9.63;4.78;;;16.00;99.90;;;;;;5066463;28;20070;-78
2023/09/01 10:58:52;;;;;;;12.32;5.28;;;16.10;99.90;;;;;;5083134;28;20532;-78
2023/09/01 11:01:32;;;;;;;;;;;16.10;99.90;;;;;;5099572;28;20032;-78
2023/09/01 11:04:16;;;;;;;10.55;4.85;;;16.10;99.90;;;;;;5098677;27;20277;-78
2023/09/01 11:06:57;;;;;;;11.25;4.85;;;16.10;99.90;;;;;;5097189;28;20040;-78
2023/09/01 11:09:42;;;;;;;15.23;5.40;;;16.10;99.90;;;;;;5100880;28;20329;-78
2023/09/01 11:12:11;;;;;;;15.70;5.63;;;16.10;99.90;;;;;;5115531;27;20085;-79
2023/09/01 11:14:38;;;;;;;11.40;5.18;;;16.10;99.90;;;;;;5065633;28;20654;-78
2023/09/01 11:17:04;;;;;;;11.25;4.78;;;16.20;99.90;;;;;;5101152;28;20032;-77
2023/09/01 11:19:47;;;;;;;12.55;5.50;;;16.20;99.90;;;;;;5101403;28;20066;-77
2023/09/01 11:22:13;;;;;;;14.23;5.72;;;16.30;99.90;;;;;;5100515;27;20042;-77
2023/09/01 11:24:38;;;;;;;8.18;4.40;;;16.30;99.90;;;;;;5082308;28;20039;-78
2023/09/01 11:27:04;;;;;;;13.02;6.05;;;16.30;99.90;;;;;;5082367;28;20076;-78
2023/09/01 11:29:31;;;;;;;12.68;5.47;;;16.30;99.90;;;;;;5077188;28;20063;-78
2023/09/01 11:31:56;;;;;;;10.32;5.80;;;16.30;99.90;;;;;;5114209;27;20045;-77
2023/09/01 11:34:22;;;;;;;13.73;6.00;;;16.40;99.90;;;;;;5100373;27;20040;-76
2023/09/01 11:36:51;;;;;;;12.98;5.50;;;16.40;99.90;;;;;;5079179;28;20040;-79
2023/09/01 11:39:18;;;;;;;12.40;5.18;;;16.40;99.90;;;;;;5076706;28;20149;-77
2023/09/01 11:41:45;;;;;;;14.63;5.70;;;16.50;99.90;;;;;;5063943;28;20054;-78
2023/09/01 11:44:11;;;;;;;11.52;5.28;;;16.50;99.90;;;;;;5084043;28;20039;-77
2023/09/01 11:46:38;;;;;;;11.18;5.22;;;16.50;99.90;;;;;;5101146;28;20032;-77
2023/09/01 11:49:05;;;;;;;9.52;5.07;;;16.60;99.90;;;;;;5079367;28;20118;-78
2023/09/01 11:51:36;;;;;;;12.98;5.25;;;16.60;99.90;;;;;;5079213;28;20020;-78
2023/09/01 11:54:02;;;;;;;10.95;5.18;;;16.60;99.90;;;;;;5099780;28;20028;-78
2023/09/01 11:56:28;;;;;;;8.95;4.63;;;16.60;99.90;;;;;;5069020;27;20130;-78
2023/09/01 11:58:55;;;;;;;11.10;5.63;;;16.70;99.90;;;;;;5064034;28;20154;-76
2023/09/01 12:01:23;;;;;;;8.80;5.20;;;16.60;99.90;;;;;;5078885;28;20044;-78
2023/09/01 12:03:50;;;;;;;8.65;4.95;;;16.70;99.90;;;;;;5081393;28;20051;-76
2023/09/01 12:06:19;;;;;;;11.98;5.80;;;16.80;99.90;;;;;;5079532;28;20138;-78
2023/09/01 12:08:45;;;;;;;11.55;5.20;;;16.80;99.90;;;;;;5062487;28;20397;-77
2023/09/01 12:11:16;;;;;;;12.70;4.72;;;16.80;99.90;;;;;;5117195;27;20507;-82
2023/09/01 12:13:45;;;;;;;16.98;5.40;;;16.80;99.90;;;;;;5078643;28;20504;-78
2023/09/01 12:16:22;;;;;;;9.85;4.70;;;16.90;99.90;;;;;;5104083;28;20049;-78
2023/09/01 12:18:48;;;;;;;13.82;6.03;;;16.90;99.90;;;;;;5073665;28;20114;-77
2023/09/01 12:21:14;;;;;;;11.02;5.15;;;16.90;99.90;;;;;;5105038;28;20055;-77
2023/09/01 12:23:44;;;;;;;13.98;5.28;;;16.90;99.90;;;;;;5125157;28;20040;-77
2023/09/01 12:26:12;;;;;;;9.85;5.43;;;16.90;99.90;;;;;;5124922;28;20092;-78
2023/09/01 12:28:39;;;;;;;11.45;5.22;;;16.90;99.90;;;;;;5120740;28;20569;-77
2023/09/01 12:31:06;;;;;;;9.85;5.30;;;16.90;99.90;;;;;;5090770;28;20045;-78
2023/09/01 12:33:32;;;;;;;9.77;4.78;;;17.00;99.90;;;;;;5108380;28;20047;-77
2023/09/01 12:35:59;;;;;;;10.70;5.93;;;17.00;99.90;;;;;;5087804;28;20039;-77
2023/09/01 12:38:25;;;;;;;14.27;6.13;;;17.00;99.90;;;;;;5076880;28;20058;-77
2023/09/01 12:40:51;;;;;;;11.20;5.70;;;17.10;99.90;;;;;;5110661;28;20043;-77
2023/09/01 12:43:17;;;;;;;11.23;5.20;;;17.10;99.90;;;;;;5109598;28;20043;-77
2023/09/01 12:45:43;;;;;;;11.73;5.70;;;17.10;99.90;;;;;;5128577;27;20107;-77
2023/09/01 12:48:08;;;;;;;8.27;5.07;;;17.10;99.90;;;;;;5094446;28;20092;-77